Terminal Aerodrome Forecast
Issued by NWS Spokane, WA

Home | Current Version | Previous Version | Text Only | Print | Product List | Glossary On
Versions: 1 2 3 4 5 6 7 8 9 10 11 12 13 14 15 16 17 18 19 20 21 22 23 24 25 26 27
000
FTUS46 KOTX 030538
TAFGEG
TAF
KGEG 030538Z 0306/0406 16010KT P6SM -DZ SCT007 OVC030
     FM030800 21009KT P6SM BKN006
     FM031000 21010KT 5SM BR SCT003 OVC006
     FM031900 22012G17KT P6SM SCT040 OVC180
     FM040500 20013KT P6SM OVC050=

USA.gov is the U.S. government's official web portal to all federal, state and local government web resources and services.